createdAt,value
2022-11-26T00:15:56.968Z,25.10
2022-11-26T00:37:45.794Z,27.70
2022-11-26T00:59:31.586Z,26.00
2022-11-26T01:21:17.564Z,22.40
2022-11-26T01:43:08.246Z,24.10
2022-11-26T02:05:04.569Z,21.20
2022-11-26T02:27:14.391Z,21.90
2022-11-26T02:49:00.509Z,19.30
2022-11-26T03:10:46.268Z,20.10
2022-11-26T03:32:32.630Z,18.50
2022-11-26T03:54:18.735Z,18.50
2022-11-26T04:16:04.499Z,17.80
2022-11-26T04:37:50.382Z,13.90
2022-11-26T04:59:36.190Z,11.40
2022-11-26T05:21:22.022Z,11.90
2022-11-26T05:43:07.760Z,11.40
2022-11-26T06:04:53.476Z,11.20
2022-11-26T06:26:39.352Z,10.40
2022-11-26T06:48:26.672Z,11.40
2022-11-26T07:10:13.499Z,10.70
2022-11-26T07:31:59.408Z,10.50
2022-11-26T07:53:45.321Z,11.20
2022-11-26T08:15:31.093Z,10.50
2022-11-26T08:37:16.864Z,8.30
2022-11-26T08:59:02.648Z,7.20
2022-11-26T09:20:52.842Z,4.20
2022-11-26T09:42:54.046Z,4.00
2022-11-26T10:04:40.956Z,4.10
2022-11-26T10:26:31.951Z,3.70
2022-11-26T10:48:26.424Z,3.70
2022-11-26T11:32:05.847Z,8.30
2022-11-26T11:54:03.390Z,11.40
2022-11-26T12:15:54.218Z,13.00
2022-11-26T12:37:44.125Z,15.10
2022-11-26T12:59:39.474Z,15.30
2022-11-26T13:21:37.615Z,15.20
2022-11-26T13:43:45.388Z,15.40
2022-11-26T14:06:09.478Z,14.80
2022-11-26T14:49:46.317Z,13.10
2022-11-26T15:11:32.759Z,12.90
2022-11-26T15:33:19.281Z,13.90
2022-11-26T15:55:12.419Z,13.00
2022-11-26T16:17:03.667Z,14.70
2022-11-26T16:38:53.363Z,15.80
2022-11-26T17:00:39.821Z,16.10
2022-11-26T17:22:26.509Z,19.20
2022-11-26T17:44:12.377Z,22.40
2022-11-26T18:05:58.645Z,26.10
2022-11-26T18:27:44.546Z,27.40
2022-11-26T18:49:31.260Z,27.80
2022-11-26T19:11:19.965Z,32.90
2022-11-26T19:33:05.837Z,32.30
2022-11-26T19:54:52.232Z,35.00
2022-11-26T20:16:39.728Z,33.60
2022-11-26T20:38:25.495Z,37.40
2022-11-26T21:00:17.223Z,33.90
2022-11-26T21:22:03.207Z,33.90
2022-11-26T21:43:50.926Z,38.40
2022-11-26T22:05:37.266Z,32.10
2022-11-26T22:27:23.296Z,32.80
2022-11-26T22:49:12.462Z,29.10
2022-11-26T23:10:58.328Z,27.70
2022-11-26T23:32:44.550Z,31.60
2022-11-26T23:54:30.458Z,26.70
